Terminal Aerodrome Forecast
Issued by NWS Sterling, VA

Current Version | Previous Version | Graphics & Text | Print | Product List | Glossary On
Versions: 1 2 3 4 5 6 7 8 9 10 11 12 13 14 15 16 17 18 19 20 21 22 23 24 25 26 27
000
FTUS41 KLWX 271723
TAFIAD
TAF
KIAD 271723Z 2718/2824 08005KT P6SM OVC015
     FM272000 07004KT P6SM OVC025
     FM280000 07004KT P6SM OVC015
     FM280300 00000KT P6SM OVC010
     FM281400 07006KT P6SM -SHRA OVC010=

USA.gov is the U.S. government's official web portal to all federal, state and local government web resources and services.